Main page
METAR-TAF:

METAR-TAF

Airports :

South Big Horn County Airport

Greybull, Wyoming, United States

latitude: 44-30-57N, longitude: 108-04-33W, elevation: 3933 ft

Current weather observation

The report was made 32 minutes ago, at 17:53 UTC
Wind 14 mph from the North
Temperature 72°F
Humidity 27%
Pressure 29.79 in. Hg
Visibility: 10 miles
Clear sky

METAR: KGEY 161753Z AUTO 36012KT 10SM CLR 22/02 A2979 RMK AO2 SLP056 T02220017 10222 20061 51003

Time: 12:25 (18:25 UTC)


TAF: missing

Weather observations and forecasts of more than 4000 airports (METAR and TAF reports).

The available stations are represented by yellow and red dots on the map.

Hover mouse over dot to see the name of the station.

Then click to see weather observations and forecasts.

To change the map : click on the green buttons with a black cross to zoom in, on the green button with a dash to zoom out, or on the green arrows for adjacent maps.


METAR-TAF: